Aviation Digital Data Service (ADDS)

Output produced by TAFs form (1421 UTC 23 September 2014)
found at http://www.aviationweather.gov/adds/tafs/
 
KABE 231120Z 2312/2412 27004KT P6SM SKC 
     FM231400 33004KT P6SM FEW250 
     FM240000 VRB02KT P6SM SCT250 
     FM240400 06004KT P6SM BKN250